Aérodrome :
LOGIN :

S'inscrire | Disclaimer

   EN    FR    IT 

 










Légende :    VFR   VFR Marginal   IFR   IFR Intensif   IFR Très Intensif
Visi : 
Plafond : 
>= 8 km
>= 3000ft
5 à 8 km
1000 à 3000 ft
1500m à 5 km
500 à 1000 ft
800 à 1500m
200 à 500 ft
< 800m
< 200 ft
Symboles :   Orages  Brouillard  Fortes neiges  Fortes précipitations  Vent > 20 kt
SIGMETs :   Divers  Orages  Givrage  Turbulence  Onde Orograph.  Cendres Volcan.






- Altitude de l'aérodrome : 423 ft
- Code IATA : PIS


LFBI - Poitiers

DERNIER METAR :
  • 231230Z AUTO 26016KT 9999 SCT026/// BKN034/// OVC046/// ///TCU 08/04 Q0994 TEMPO 4000 -SHRA BECMG 31015G25KT BKN030

METARs EXPIRÉS :
  • 231200Z AUTO 26020G31KT 230V290 9000 FEW027 BKN035 BKN043 09/04 Q0993 TEMPO 4000 -SHRA BKN015TCU
  • 231130Z AUTO 24020KT 9999 BKN024/// BKN044/// BKN054/// ///TCU 09/05 Q0993 TEMPO 4000 -SHRA BECMG 31015G25KT BKN030
  • 231100Z AUTO 23017KT 9999 FEW017/// SCT030/// BKN036/// ///TCU 07/05 Q0993 TEMPO 27020G40KT 4000 -SHRA
  • 231030Z AUTO 22015KT 9999 -RA BKN033/// BKN050/// BKN064/// ///TCU 06/04 Q0994 TEMPO 27020G40KT 4000 -SHRA

TAF TAF LFBI
Valide du 23 à 12h jusqu'au 24 à 12h UTC


231100Z 2312/2412 25015G30KT 9999 BKN030
TEMPO 2312/2314 27020G40KT 4000 -SHRA BKN015TCU
BECMG 2314/2316 31015G25KT
BECMG 2316/2318 31010KT
BECMG 2322/2324 VRB02KT
PROB30 2401/2406 3000 BR
BECMG 2406/2408 21010KT
TEMPO 2407/2410 1500 -DZ BR BKN003
TEMPO 2410/2412 22015G25KT 4000 SHRA BKN008TCU BKN015CB



MET'MAP, la Météo Aéronautique d'un coup d'oeil ! - Copyright ORBIFLY Décembre 2007 - Disclaimer

ORBIFLY MET'MAP TEAM :

Programmation & Développement : Alexandra Zaïnal
Sur une idée originale de : Baudouin d'Aumeries
Assistance à la programmation : Marc-Olivier Méhu
Soutien technique & logistique : Manuel Goepfert

Contact : metmap@orbifly.com




SOURCES & CREDITS :

   NOAA